Time;durP1;ratioP1;P1;durP2;ratioP2;P2;SDS_P1;SDS_P2;PMS_P1;PMS_P2;Temp;Humidity;BMP_temperature;BMP_pressure;BME280_temperature;BME280_humidity;BME280_pressure;Samples;Min_cycle;Max_cycle;Signal;HPM_P1;HPM_P2
2023/02/13 00:00:33;;;;;;;0.40;0.40;;;2.30;99.90;;;;;;5033622;28;20571;-67
2023/02/13 00:03:00;;;;;;;0.40;0.40;;;2.40;99.90;;;;;;5033381;28;20610;-67
2023/02/13 00:05:25;;;;;;;0.30;0.30;;;2.40;99.90;;;;;;5033762;28;20172;-67
2023/02/13 00:07:51;;;;;;;0.30;0.30;;;2.40;99.90;;;;;;5033223;28;20178;-67
2023/02/13 00:10:17;;;;;;;0.83;0.83;;;2.30;99.90;;;;;;5033441;28;20201;-67
2023/02/13 00:12:42;;;;;;;0.30;0.30;;;2.20;99.90;;;;;;5033315;28;20212;-67
2023/02/13 00:15:08;;;;;;;0.70;0.60;;;2.30;99.90;;;;;;5033299;28;20633;-67
2023/02/13 00:17:35;;;;;;;0.60;0.60;;;2.30;99.90;;;;;;5033190;28;20167;-67
2023/02/13 00:20:00;;;;;;;0.63;0.63;;;2.10;99.90;;;;;;5033328;28;20213;-67
2023/02/13 00:22:26;;;;;;;7.30;2.70;;;2.10;99.90;;;;;;5033212;28;20194;-67
2023/02/13 00:24:52;;;;;;;1.67;1.57;;;2.20;99.90;;;;;;5033253;28;20642;-67
2023/02/13 00:27:18;;;;;;;1.70;0.77;;;2.30;99.90;;;;;;5033113;28;20203;-69
2023/02/13 00:29:43;;;;;;;0.77;0.77;;;2.40;99.90;;;;;;5033032;28;20207;-67
2023/02/13 00:32:09;;;;;;;0.40;0.40;;;2.30;99.90;;;;;;5037001;28;20670;-67
2023/02/13 00:34:35;;;;;;;2.10;2.00;;;2.20;99.90;;;;;;5037277;28;20169;-67
2023/02/13 00:37:01;;;;;;;0.60;0.60;;;2.10;99.90;;;;;;5036804;28;20197;-67
2023/02/13 00:39:26;;;;;;;1.43;1.33;;;2.10;99.90;;;;;;5037182;28;20170;-67
2023/02/13 00:41:52;;;;;;;0.30;0.30;;;2.10;99.90;;;;;;5036882;28;20263;-67
2023/02/13 00:44:18;;;;;;;1.13;0.80;;;2.20;99.90;;;;;;5036805;28;20556;-67
2023/02/13 00:46:43;;;;;;;0.70;0.70;;;2.30;99.90;;;;;;5035468;28;20652;-67
2023/02/13 00:49:09;;;;;;;0.30;0.30;;;2.30;99.90;;;;;;5035533;28;20206;-67
2023/02/13 00:51:34;;;;;;;0.30;0.30;;;2.20;99.90;;;;;;5036726;28;20194;-67
2023/02/13 00:54:00;;;;;;;0.53;0.53;;;2.20;99.90;;;;;;5036740;28;20685;-67
2023/02/13 00:56:26;;;;;;;0.67;0.67;;;2.00;99.90;;;;;;5036657;28;20159;-67
2023/02/13 00:58:52;;;;;;;1.25;1.15;;;1.90;99.90;;;;;;5036785;28;20261;-67
2023/02/13 01:01:18;;;;;;;0.53;0.53;;;2.00;99.90;;;;;;5036490;28;20637;-67
2023/02/13 01:03:43;;;;;;;0.50;0.50;;;2.10;99.90;;;;;;5036528;28;20173;-67
2023/02/13 01:06:09;;;;;;;1.10;1.10;;;2.10;99.90;;;;;;5035155;28;20198;-67
2023/02/13 01:08:38;;;;;;;1.53;1.43;;;2.20;99.90;;;;;;5036780;28;20526;-67
2023/02/13 01:11:04;;;;;;;0.93;0.93;;;2.10;99.90;;;;;;5036573;28;20224;-67
2023/02/13 01:13:30;;;;;;;0.93;0.93;;;2.20;99.90;;;;;;5036552;28;20736;-67
2023/02/13 01:15:56;;;;;;;0.40;0.40;;;2.20;99.90;;;;;;5036107;28;20427;-67
2023/02/13 01:18:23;;;;;;;0.50;0.47;;;2.00;99.90;;;;;;5036396;28;20170;-67
2023/02/13 01:21:03;;;;;;;0.43;0.43;;;2.00;99.90;;;;;;5035043;28;20173;-67
2023/02/13 01:23:30;;;;;;;0.73;0.73;;;2.00;99.90;;;;;;5036258;28;20176;-67
2023/02/13 01:25:56;;;;;;;1.20;1.20;;;2.00;99.90;;;;;;5036117;28;20180;-67
2023/02/13 01:28:21;;;;;;;0.40;0.40;;;2.10;99.90;;;;;;5036076;28;20259;-67
2023/02/13 01:30:53;;;;;;;0.63;0.63;;;2.00;99.90;;;;;;5036373;28;20708;-67
2023/02/13 01:33:18;;;;;;;0.70;0.70;;;2.00;99.90;;;;;;5035991;28;20281;-67
2023/02/13 01:35:44;;;;;;;0.40;0.40;;;2.00;99.90;;;;;;5035901;28;20209;-67
2023/02/13 01:38:09;;;;;;;0.60;0.60;;;2.10;99.90;;;;;;5036121;28;20181;-67
2023/02/13 01:40:35;;;;;;;1.23;0.60;;;2.10;99.90;;;;;;5036369;28;20264;-67
2023/02/13 01:43:01;;;;;;;0.30;0.30;;;2.00;99.90;;;;;;5034643;28;20197;-67
2023/02/13 01:45:28;;;;;;;0.60;0.60;;;2.00;99.90;;;;;;5035922;28;20215;-67
2023/02/13 01:48:07;;;;;;;4.30;2.72;;;2.10;99.90;;;;;;5035688;28;20178;-67
2023/02/13 01:50:35;;;;;;;1.10;1.10;;;2.20;99.90;;;;;;5035793;28;20209;-67
2023/02/13 01:53:08;;;;;;;0.40;0.40;;;2.20;99.90;;;;;;5035552;28;20620;-67
2023/02/13 01:55:38;;;;;;;0.77;0.77;;;2.30;99.90;;;;;;5034543;28;20281;-67
2023/02/13 01:58:09;;;;;;;0.82;0.82;;;2.30;99.90;;;;;;5035505;28;20503;-67
2023/02/13 02:00:36;;;;;;;0.95;0.95;;;2.20;99.90;;;;;;5035833;28;20300;-67
2023/02/13 02:03:09;;;;;;;0.40;0.40;;;2.10;99.90;;;;;;5035419;28;20201;-67
2023/02/13 02:05:35;;;;;;;0.40;0.40;;;2.00;99.90;;;;;;5035904;28;20202;-67
2023/02/13 02:08:05;;;;;;;0.98;0.98;;;2.00;99.90;;;;;;5035220;28;20177;-67
2023/02/13 02:10:32;;;;;;;0.30;0.30;;;2.00;99.90;;;;;;5035632;28;20570;-67
2023/02/13 02:13:05;;;;;;;2.25;1.25;;;2.10;99.90;;;;;;5035198;28;20331;-67
2023/02/13 02:15:31;;;;;;;0.88;0.88;;;2.10;99.90;;;;;;5035393;28;20601;-67
2023/02/13 02:17:57;;;;;;;3.03;1.70;;;2.10;99.90;;;;;;5035117;28;20260;-67
2023/02/13 02:20:47;;;;;;;0.40;0.40;;;2.10;99.90;;;;;;5035371;28;20180;-67
2023/02/13 02:23:30;;;;;;;0.60;0.60;;;2.20;99.90;;;;;;5035344;28;20559;-67
2023/02/13 02:26:26;;;;;;;0.60;0.60;;;2.30;99.90;;;;;;5035113;28;20531;-67
2023/02/13 02:29:13;;;;;;;0.82;0.82;;;2.40;99.90;;;;;;5035130;28;20174;-67
2023/02/13 02:31:56;;;;;;;0.82;0.82;;;2.40;99.90;;;;;;5034955;28;20217;-67
2023/02/13 02:34:34;;;;;;;1.08;1.08;;;2.30;99.90;;;;;;5034915;28;20631;-67
2023/02/13 02:37:34;;;;;;;0.68;0.68;;;2.30;99.90;;;;;;5034770;28;20181;-67
2023/02/13 02:40:25;;;;;;;0.70;0.70;;;2.20;99.90;;;;;;5034834;28;20178;-67
2023/02/13 02:43:13;;;;;;;10.73;1.30;;;2.20;99.90;;;;;;5034551;28;20200;-67
2023/02/13 02:45:51;;;;;;;0.30;0.30;;;2.30;99.90;;;;;;5034911;28;20542;-67
2023/02/13 02:51:05;;;;;;;0.40;0.40;;;2.30;99.90;;;;;;5034501;28;20219;-67
2023/02/13 02:53:51;;;;;;;0.50;0.50;;;2.40;99.90;;;;;;5033865;28;20169;-67
2023/02/13 02:56:30;;;;;;;0.40;0.40;;;2.30;99.90;;;;;;5033165;28;20233;-67
2023/02/13 03:07:32;;;;;;;0.35;0.35;;;2.00;99.90;;;;;;5033678;28;20213;-67
2023/02/13 03:13:20;;;;;;;0.40;0.40;;;2.00;99.90;;;;;;5033876;28;20200;-67
2023/02/13 03:24:31;;;;;;;1.20;1.10;;;2.00;99.90;;;;;;5034005;28;20296;-67
2023/02/13 03:30:05;;;;;;;0.32;0.32;;;2.10;99.90;;;;;;5033884;28;20586;-67
2023/02/13 03:30:29;;;;;;;0.50;0.50;;;2.10;99.90;;;;;;5033772;28;20582;-68
2023/02/13 03:33:16;;;;;;;1.48;0.65;;;2.00;99.90;;;;;;5033466;28;20210;-67
2023/02/13 03:38:58;;;;;;;0.50;0.50;;;1.90;99.90;;;;;;5033757;28;20192;-67
2023/02/13 03:41:49;;;;;;;1.10;1.10;;;1.90;99.90;;;;;;5033889;28;20176;-67
2023/02/13 03:44:37;;;;;;;0.40;0.40;;;1.90;99.90;;;;;;5033509;28;20194;-67
2023/02/13 03:47:05;;;;;;;1.50;1.50;;;1.90;99.90;;;;;;5033409;28;20162;-67
2023/02/13 03:52:47;;;;;;;0.95;0.95;;;1.90;99.90;;;;;;4999365;28;20200;-67
2023/02/13 04:01:14;;;;;;;0.30;0.30;;;1.90;99.90;;;;;;5033916;28;20275;-67
2023/02/13 04:04:04;;;;;;;0.63;0.63;;;1.90;99.90;;;;;;5033393;28;20638;-67
2023/02/13 04:06:34;;;;;;;0.30;0.30;;;1.90;99.90;;;;;;5032718;28;20181;-67
2023/02/13 04:09:00;;;;;;;0.60;0.60;;;1.80;99.90;;;;;;5033472;28;20169;-67
2023/02/13 04:12:04;;;;;;;0.40;0.40;;;1.70;99.90;;;;;;5033595;28;20654;-67
2023/02/13 04:14:39;;;;;;;0.60;0.60;;;1.60;99.90;;;;;;5028164;28;20649;-67
2023/02/13 04:17:10;;;;;;;0.50;0.50;;;1.60;99.90;;;;;;5031959;28;20184;-67
2023/02/13 04:19:36;;;;;;;0.30;0.30;;;1.60;99.90;;;;;;5032613;28;20167;-67
2023/02/13 04:22:02;;;;;;;1.02;0.60;;;1.70;99.90;;;;;;5032372;28;20248;-67
2023/02/13 04:24:28;;;;;;;0.73;0.73;;;1.80;99.90;;;;;;5029806;28;20181;-67
2023/02/13 04:26:55;;;;;;;1.13;1.13;;;1.80;99.90;;;;;;5031056;28;20410;-67
2023/02/13 04:29:22;;;;;;;0.30;0.30;;;1.70;99.90;;;;;;5030190;28;20208;-67
2023/02/13 04:31:48;;;;;;;0.40;0.40;;;1.70;99.90;;;;;;5030636;28;20673;-67
2023/02/13 04:34:14;;;;;;;0.40;0.40;;;1.60;99.90;;;;;;5033236;28;20172;-67
2023/02/13 04:36:39;;;;;;;1.73;1.63;;;1.70;99.90;;;;;;5033223;28;20195;-67
2023/02/13 04:39:05;;;;;;;0.40;0.40;;;1.80;99.90;;;;;;5033657;28;20418;-67
2023/02/13 04:41:31;;;;;;;0.43;0.43;;;1.80;99.90;;;;;;5033714;28;20205;-67
2023/02/13 04:43:56;;;;;;;0.30;0.30;;;1.70;99.90;;;;;;5033009;28;20580;-67
2023/02/13 04:46:22;;;;;;;1.03;1.03;;;1.70;99.90;;;;;;5031692;28;20178;-67
2023/02/13 04:48:48;;;;;;;0.40;0.40;;;1.80;99.90;;;;;;5033258;28;20179;-67
2023/02/13 04:51:14;;;;;;;0.40;0.40;;;1.70;99.90;;;;;;5032133;28;20403;-67
2023/02/13 04:53:39;;;;;;;0.40;0.40;;;1.60;99.90;;;;;;5033588;28;20633;-67
2023/02/13 04:56:05;;;;;;;0.40;0.40;;;1.50;99.90;;;;;;5033275;28;20179;-67
2023/02/13 04:58:31;;;;;;;0.30;0.30;;;1.50;99.90;;;;;;5033169;28;20196;-67
2023/02/13 05:00:56;;;;;;;5.30;1.33;;;1.60;99.90;;;;;;5033120;28;20472;-67
2023/02/13 05:03:22;;;;;;;0.30;0.30;;;1.70;99.90;;;;;;5033188;28;20204;-67
2023/02/13 05:05:48;;;;;;;1.37;1.30;;;1.70;99.90;;;;;;5032788;28;20176;-67
2023/02/13 05:08:14;;;;;;;1.45;1.35;;;1.70;99.90;;;;;;5032637;28;20176;-67
2023/02/13 05:10:39;;;;;;;0.40;0.40;;;1.60;99.90;;;;;;5033354;28;20675;-67
2023/02/13 05:13:05;;;;;;;1.20;1.13;;;1.70;99.90;;;;;;5031938;28;20203;-68
2023/02/13 05:15:31;;;;;;;0.60;0.60;;;1.70;99.90;;;;;;5033144;28;20167;-67
2023/02/13 05:17:56;;;;;;;0.50;0.50;;;1.70;99.90;;;;;;5033826;28;20256;-68
2023/02/13 05:20:22;;;;;;;0.30;0.30;;;1.70;99.90;;;;;;5036210;28;20609;-67
2023/02/13 05:25:37;;;;;;;0.95;0.93;;;1.50;99.90;;;;;;5035417;28;20243;-67
2023/02/13 05:28:03;;;;;;;0.38;0.38;;;1.40;99.90;;;;;;5036192;28;20314;-67
2023/02/13 05:30:29;;;;;;;1.30;1.30;;;1.40;99.90;;;;;;5035050;28;20200;-67
2023/02/13 05:32:54;;;;;;;0.83;0.60;;;1.50;99.90;;;;;;5035849;28;20254;-67
2023/02/13 05:35:24;;;;;;;1.27;1.27;;;1.50;99.90;;;;;;5036585;28;20166;-67
2023/02/13 05:37:50;;;;;;;0.30;0.30;;;1.50;99.90;;;;;;5035984;28;20295;-67
2023/02/13 05:40:16;;;;;;;0.40;0.40;;;1.50;99.90;;;;;;5035167;28;20209;-67
2023/02/13 05:42:42;;;;;;;0.30;0.30;;;1.40;99.90;;;;;;5034123;28;20511;-68
2023/02/13 05:45:09;;;;;;;0.30;0.30;;;1.30;99.90;;;;;;5033681;28;20514;-67
2023/02/13 05:47:35;;;;;;;0.60;0.60;;;1.30;99.90;;;;;;5036141;28;20216;-67
2023/02/13 05:50:01;;;;;;;1.38;0.60;;;1.30;99.90;;;;;;5036273;28;20200;-68
2023/02/13 05:52:27;;;;;;;0.93;0.93;;;1.30;99.90;;;;;;5036082;28;20243;-67
2023/02/13 05:54:52;;;;;;;0.70;0.70;;;1.30;99.90;;;;;;5035932;28;20164;-67
2023/02/13 05:57:18;;;;;;;0.60;0.60;;;1.20;99.90;;;;;;5035711;28;20199;-67
2023/02/13 05:59:44;;;;;;;0.40;0.40;;;1.20;99.90;;;;;;5035894;28;20218;-67
2023/02/13 06:02:09;;;;;;;0.30;0.30;;;1.30;99.90;;;;;;5035400;28;20283;-67
2023/02/13 06:04:35;;;;;;;1.90;1.57;;;1.20;99.90;;;;;;5035944;28;20200;-67
2023/02/13 06:07:01;;;;;;;0.40;0.40;;;1.20;99.90;;;;;;5035503;28;20185;-67
2023/02/13 06:09:26;;;;;;;0.50;0.50;;;1.10;99.90;;;;;;5035396;28;20197;-67
2023/02/13 06:11:52;;;;;;;0.73;0.73;;;1.10;99.90;;;;;;5035502;28;20193;-67
2023/02/13 06:14:18;;;;;;;0.90;0.90;;;1.20;99.90;;;;;;5035654;28;20180;-67
2023/02/13 06:16:43;;;;;;;0.40;0.40;;;1.10;99.90;;;;;;5035216;28;20173;-67
2023/02/13 06:19:09;;;;;;;0.37;0.37;;;1.00;99.90;;;;;;5034528;28;20187;-69
2023/02/13 06:21:36;;;;;;;0.30;0.30;;;1.00;99.90;;;;;;5035752;28;20196;-69
2023/02/13 06:24:06;;;;;;;0.40;0.40;;;1.00;99.90;;;;;;5034997;28;20170;-69
2023/02/13 06:26:32;;;;;;;0.50;0.50;;;1.10;99.90;;;;;;5034700;28;20268;-69
2023/02/13 06:28:58;;;;;;;0.73;0.73;;;1.20;99.90;;;;;;5034527;28;20692;-69
2023/02/13 06:31:23;;;;;;;0.60;0.60;;;1.30;99.90;;;;;;5034981;28;20196;-69
2023/02/13 06:33:49;;;;;;;0.50;0.50;;;1.20;99.90;;;;;;5034926;28;20172;-70
2023/02/13 06:36:15;;;;;;;0.40;0.40;;;1.10;99.90;;;;;;5034672;28;20246;-69
2023/02/13 06:38:40;;;;;;;0.40;0.40;;;1.00;99.90;;;;;;5034871;28;20609;-69
2023/02/13 06:41:06;;;;;;;0.53;0.53;;;1.00;99.90;;;;;;5035289;28;20173;-69
2023/02/13 06:43:32;;;;;;;0.30;0.30;;;1.10;99.90;;;;;;5034865;28;20184;-68
2023/02/13 06:45:58;;;;;;;0.43;0.43;;;1.20;99.90;;;;;;5035125;28;20221;-69
2023/02/13 06:48:24;;;;;;;0.80;0.80;;;1.20;99.90;;;;;;5034879;28;20171;-69
2023/02/13 06:50:51;;;;;;;1.10;1.10;;;1.10;99.90;;;;;;5034975;28;20447;-67
2023/02/13 06:53:18;;;;;;;1.67;1.40;;;1.00;99.80;;;;;;5034544;28;20277;-67
2023/02/13 06:55:44;;;;;;;1.70;1.60;;;0.90;99.90;;;;;;5034550;28;20609;-67
2023/02/13 06:58:10;;;;;;;1.40;1.40;;;1.00;99.90;;;;;;5034816;28;20172;-67
2023/02/13 07:00:36;;;;;;;1.87;1.77;;;1.10;99.90;;;;;;5035329;28;20182;-67
2023/02/13 07:03:04;;;;;;;0.40;0.40;;;1.10;99.90;;;;;;5032952;28;20192;-67
2023/02/13 07:05:30;;;;;;;0.60;0.60;;;1.40;99.90;;;;;;5035006;28;20180;-67
2023/02/13 07:07:56;;;;;;;0.40;0.40;;;1.10;99.90;;;;;;5032589;28;20238;-68
2023/02/13 07:10:21;;;;;;;0.50;0.50;;;1.10;99.90;;;;;;5033492;28;20451;-69
2023/02/13 07:12:47;;;;;;;0.30;0.30;;;1.10;99.90;;;;;;5034820;28;20965;-70
2023/02/13 07:15:12;;;;;;;0.80;0.80;;;1.10;99.90;;;;;;5034681;28;20239;-70
2023/02/13 07:17:38;;;;;;;0.40;0.40;;;1.20;99.90;;;;;;5033915;28;20232;-69
2023/02/13 07:20:05;;;;;;;1.63;0.90;;;1.30;99.90;;;;;;5034733;28;20183;-69
2023/02/13 07:22:31;;;;;;;0.60;0.60;;;1.30;99.90;;;;;;5034202;28;20193;-69
2023/02/13 07:24:58;;;;;;;0.50;0.50;;;1.30;99.90;;;;;;5034264;28;20197;-69
2023/02/13 07:27:27;;;;;;;2.08;1.88;;;1.30;99.90;;;;;;5034205;28;20168;-70
2023/02/13 07:29:56;;;;;;;1.73;1.67;;;1.30;99.90;;;;;;5034276;28;20535;-69
2023/02/13 07:32:23;;;;;;;3.22;3.03;;;1.30;99.90;;;;;;5034073;28;20193;-67
2023/02/13 07:34:48;;;;;;;0.55;0.55;;;1.40;99.90;;;;;;5033880;28;20185;-67
2023/02/13 07:37:14;;;;;;;0.40;0.40;;;1.50;99.90;;;;;;5033861;28;20177;-68
2023/02/13 07:39:40;;;;;;;0.93;0.93;;;1.60;99.90;;;;;;5032123;28;20536;-67
2023/02/13 07:42:06;;;;;;;0.30;0.30;;;1.60;99.90;;;;;;5034059;28;20203;-67
2023/02/13 07:44:32;;;;;;;0.40;0.40;;;1.60;99.90;;;;;;5033634;28;20205;-68
2023/02/13 07:46:57;;;;;;;0.50;0.50;;;1.60;99.90;;;;;;5033720;28;20175;-70
2023/02/13 07:49:24;;;;;;;0.70;0.60;;;1.70;99.90;;;;;;5033806;28;20453;-69
2023/02/13 07:51:50;;;;;;;1.67;1.15;;;2.20;99.90;;;;;;5033954;28;20259;-69
2023/02/13 07:54:15;;;;;;;0.93;0.93;;;3.60;99.90;;;;;;5033898;28;20178;-69
2023/02/13 07:56:41;;;;;;;0.77;0.77;;;5.60;99.90;;;;;;5033442;28;20253;-70
2023/02/13 07:59:07;;;;;;;2.83;2.70;;;7.60;99.90;;;;;;5034107;28;20178;-70
2023/02/13 08:01:32;;;;;;;1.73;1.63;;;9.40;99.90;;;;;;5033957;28;20687;-69
2023/02/13 08:03:58;;;;;;;2.47;1.73;;;10.90;99.90;;;;;;5032274;28;20174;-70
2023/02/13 08:06:23;;;;;;;1.93;1.70;;;12.30;97.40;;;;;;5032065;28;20178;-70
2023/02/13 08:11:52;;;;;;;2.40;2.10;;;13.40;90.20;;;;;;5033731;28;20213;-71
2023/02/13 08:11:53;;;;;;;0.77;0.77;;;14.30;78.10;;;;;;5033792;28;20209;-69
2023/02/13 08:14:26;;;;;;;1.47;0.83;;;15.30;65.10;;;;;;5034000;28;20734;-69
2023/02/13 08:16:52;;;;;;;0.70;0.70;;;15.80;58.10;;;;;;5033516;28;20409;-69
2023/02/13 08:19:18;;;;;;;1.17;0.97;;;16.20;55.90;;;;;;5033661;28;20406;-69
2023/02/13 08:21:44;;;;;;;0.40;0.40;;;16.90;54.40;;;;;;5033681;28;20424;-71
2023/02/13 08:24:11;;;;;;;1.43;1.33;;;17.60;51.90;;;;;;5033884;28;20181;-71
2023/02/13 08:26:36;;;;;;;2.13;1.53;;;18.10;50.00;;;;;;5033423;28;20540;-68
2023/02/13 08:29:03;;;;;;;0.80;0.80;;;18.80;48.60;;;;;;5033277;28;20864;-68
2023/02/13 08:31:29;;;;;;;2.53;1.77;;;19.30;47.20;;;;;;5033335;28;20542;-68
2023/02/13 08:33:56;;;;;;;0.97;0.97;;;19.80;45.40;;;;;;5033661;28;20381;-69
2023/02/13 08:36:22;;;;;;;1.20;1.03;;;20.30;44.40;;;;;;5033250;28;20709;-68
2023/02/13 08:38:48;;;;;;;1.37;1.13;;;20.80;43.30;;;;;;5033685;28;20467;-69
2023/02/13 08:41:14;;;;;;;1.90;1.73;;;21.20;42.20;;;;;;5033726;28;20409;-69
2023/02/13 08:43:40;;;;;;;2.57;2.17;;;21.80;42.10;;;;;;5033084;28;20182;-67
2023/02/13 08:46:05;;;;;;;3.70;3.37;;;22.30;41.10;;;;;;5033184;28;20412;-67
2023/02/13 08:48:31;;;;;;;4.00;2.80;;;22.80;39.60;;;;;;5033538;28;20203;-68
2023/02/13 08:50:57;;;;;;;2.03;1.80;;;23.10;38.60;;;;;;5033633;28;20198;-71
2023/02/13 08:53:22;;;;;;;2.67;1.60;;;23.10;38.40;;;;;;5037128;28;20260;-71
2023/02/13 08:55:56;;;;;;;2.77;2.57;;;22.80;38.20;;;;;;5037213;28;20244;-71
2023/02/13 08:58:21;;;;;;;1.97;1.87;;;22.30;38.20;;;;;;5036827;28;20236;-71
2023/02/13 09:00:47;;;;;;;5.50;1.70;;;22.10;39.00;;;;;;5036892;28;20894;-71
2023/02/13 09:03:13;;;;;;;1.03;0.90;;;22.20;39.20;;;;;;5036857;28;20194;-69
2023/02/13 09:05:38;;;;;;;1.00;1.00;;;22.10;39.00;;;;;;5037048;28;20220;-72
2023/02/13 09:08:04;;;;;;;0.90;0.90;;;21.70;38.90;;;;;;5036275;28;20179;-68
2023/02/13 09:10:31;;;;;;;0.80;0.80;;;21.10;39.50;;;;;;5037033;28;20206;-69
2023/02/13 09:12:57;;;;;;;2.13;0.80;;;20.60;39.80;;;;;;5034773;28;20202;-69
2023/02/13 09:15:22;;;;;;;1.50;1.40;;;20.40;40.20;;;;;;5036524;28;20380;-70
2023/02/13 09:17:48;;;;;;;1.00;0.90;;;20.30;40.70;;;;;;5034261;28;20414;-71
2023/02/13 09:20:14;;;;;;;1.00;1.00;;;20.60;40.70;;;;;;5036275;28;20178;-72
2023/02/13 09:22:40;;;;;;;1.23;1.13;;;21.20;40.10;;;;;;5036284;28;20198;-71
2023/02/13 09:25:06;;;;;;;1.90;1.10;;;22.00;40.10;;;;;;5036658;28;20175;-71
2023/02/13 09:27:33;;;;;;;0.87;0.80;;;22.80;38.60;;;;;;5036093;28;20433;-71
2023/02/13 09:29:59;;;;;;;1.47;1.37;;;23.40;37.60;;;;;;5034992;28;20471;-71
2023/02/13 09:32:25;;;;;;;0.87;0.87;;;24.10;37.90;;;;;;5036530;28;20982;-70
2023/02/13 09:34:51;;;;;;;1.50;1.30;;;24.90;37.60;;;;;;5036386;28;20185;-70
2023/02/13 09:37:16;;;;;;;1.70;1.30;;;25.50;35.80;;;;;;5035915;28;20496;-71
2023/02/13 09:39:42;;;;;;;1.63;1.30;;;26.00;35.40;;;;;;5035372;28;20229;-70
2023/02/13 09:42:23;;;;;;;2.70;2.50;;;26.50;34.20;;;;;;5036029;28;20202;-70
2023/02/13 09:44:56;;;;;;;1.50;1.40;;;26.80;33.80;;;;;;5035862;28;20294;-69
2023/02/13 09:47:40;;;;;;;0.80;0.80;;;27.00;33.10;;;;;;5035902;28;20409;-69
2023/02/13 09:50:26;;;;;;;2.67;1.87;;;27.10;32.50;;;;;;5035791;28;20457;-70
2023/02/13 09:52:54;;;;;;;2.70;1.50;;;27.20;32.70;;;;;;5035777;28;20776;-70
2023/02/13 09:55:36;;;;;;;2.37;1.20;;;27.30;32.10;;;;;;5035957;28;20888;-69
2023/02/13 09:58:34;;;;;;;1.23;1.20;;;27.20;31.80;;;;;;5036004;28;20405;-69
2023/02/13 10:01:03;;;;;;;1.10;1.00;;;27.10;32.20;;;;;;5031506;28;20501;-68
2023/02/13 10:03:52;;;;;;;2.20;1.40;;;27.00;32.40;;;;;;5033805;28;20414;-68
2023/02/13 10:06:33;;;;;;;6.07;2.97;;;27.00;32.10;;;;;;5035603;28;20799;-68
2023/02/13 10:09:32;;;;;;;2.07;1.17;;;27.00;32.20;;;;;;5035600;28;20409;-68
2023/02/13 10:12:21;;;;;;;1.90;1.17;;;27.10;31.90;;;;;;5034068;28;20441;-68
2023/02/13 10:14:52;;;;;;;1.23;1.00;;;27.00;32.00;;;;;;5035682;28;20405;-69
2023/02/13 10:17:35;;;;;;;1.07;1.03;;;26.90;32.10;;;;;;5034248;28;20406;-69
2023/02/13 10:20:31;;;;;;;1.40;1.30;;;26.80;32.90;;;;;;5035638;28;20405;-69
2023/02/13 10:23:25;;;;;;;1.47;0.90;;;26.70;33.10;;;;;;5035694;28;20441;-67
2023/02/13 10:26:03;;;;;;;1.40;1.17;;;26.70;33.50;;;;;;5034996;28;20406;-68
2023/02/13 10:28:39;;;;;;;1.67;1.30;;;26.60;33.30;;;;;;5035351;28;20417;-68
2023/02/13 10:31:18;;;;;;;1.60;1.50;;;26.50;33.50;;;;;;5035337;28;20467;-69
2023/02/13 10:33:49;;;;;;;1.27;1.13;;;26.30;33.70;;;;;;5035623;28;20439;-69
2023/02/13 10:36:36;;;;;;;1.33;1.23;;;26.10;33.90;;;;;;5033613;28;20420;-69
2023/02/13 10:39:02;;;;;;;0.83;0.80;;;25.80;34.60;;;;;;5035333;28;20452;-69
2023/02/13 10:42:13;;;;;;;1.17;1.07;;;25.70;34.20;;;;;;5034611;28;20453;-69
2023/02/13 10:45:03;;;;;;;1.77;1.30;;;25.30;35.10;;;;;;5033368;28;20242;-69
2023/02/13 10:47:44;;;;;;;3.40;1.10;;;24.80;35.80;;;;;;5035088;28;20934;-69
2023/02/13 10:50:33;;;;;;;1.43;1.33;;;24.50;35.90;;;;;;5034595;28;20484;-69
2023/02/13 10:53:11;;;;;;;1.37;0.80;;;24.00;35.70;;;;;;5034689;28;20475;-69
2023/02/13 10:56:13;;;;;;;1.10;0.80;;;23.50;37.00;;;;;;5034931;28;20402;-69
2023/02/13 10:59:03;;;;;;;0.70;0.63;;;22.80;36.60;;;;;;5034425;28;20391;-69
2023/02/13 11:01:52;;;;;;;3.10;1.53;;;21.90;37.60;;;;;;5034100;28;20425;-68
2023/02/13 11:04:18;;;;;;;0.73;0.60;;;21.40;38.50;;;;;;5034901;28;20368;-68
2023/02/13 11:07:01;;;;;;;0.80;0.63;;;21.10;39.80;;;;;;5034754;28;20405;-68
2023/02/13 11:09:32;;;;;;;0.90;0.90;;;20.70;40.30;;;;;;5034282;28;20457;-69
2023/02/13 11:12:18;;;;;;;0.60;0.60;;;20.30;41.00;;;;;;5034538;28;20796;-69
2023/02/13 11:14:54;;;;;;;0.63;0.63;;;19.70;42.30;;;;;;5033930;28;20418;-68
2023/02/13 11:17:21;;;;;;;0.47;0.47;;;19.00;42.20;;;;;;5032759;28;20799;-69
2023/02/13 11:19:58;;;;;;;0.67;0.67;;;18.50;43.90;;;;;;5034693;28;20507;-69
2023/02/13 11:22:41;;;;;;;1.03;0.77;;;18.00;44.80;;;;;;5034469;28;20786;-69
2023/02/13 11:25:28;;;;;;;1.47;0.83;;;17.50;44.30;;;;;;5034408;28;20414;-69
2023/02/13 11:28:15;;;;;;;2.70;1.03;;;17.10;45.60;;;;;;5033970;28;20416;-69
2023/02/13 11:30:40;;;;;;;0.73;0.67;;;16.80;43.90;;;;;;5034140;28;20832;-68
2023/02/13 11:33:20;;;;;;;0.50;0.50;;;16.50;43.00;;;;;;5034195;28;20429;-68
2023/02/13 11:35:47;;;;;;;1.23;0.70;;;16.20;46.00;;;;;;5034370;28;20195;-69
2023/02/13 11:38:23;;;;;;;0.50;0.50;;;15.90;44.80;;;;;;5034005;28;20401;-69
2023/02/13 11:41:02;;;;;;;0.50;0.50;;;15.60;44.70;;;;;;5034082;28;20401;-66
2023/02/13 11:43:35;;;;;;;0.90;0.90;;;15.40;45.10;;;;;;5033639;28;20448;-66
2023/02/13 11:46:19;;;;;;;0.63;0.63;;;15.10;43.50;;;;;;5033909;28;20413;-66
2023/02/13 11:49:04;;;;;;;0.77;0.77;;;15.10;44.10;;;;;;5034293;28;20477;-67
2023/02/13 11:51:52;;;;;;;0.40;0.40;;;15.20;43.90;;;;;;5033742;28;20434;-67
2023/02/13 11:54:25;;;;;;;0.40;0.40;;;15.20;45.70;;;;;;5034191;28;20378;-66
2023/02/13 11:56:53;;;;;;;0.50;0.50;;;15.10;44.00;;;;;;5033625;28;20405;-66
2023/02/13 11:59:23;;;;;;;0.50;0.50;;;15.00;44.60;;;;;;5033355;28;20909;-68
2023/02/13 12:02:02;;;;;;;0.60;0.60;;;14.80;45.20;;;;;;5031130;28;20457;-68
2023/02/13 12:04:28;;;;;;;0.40;0.40;;;14.80;46.40;;;;;;5034337;28;20775;-68
2023/02/13 12:06:58;;;;;;;0.70;0.70;;;14.70;47.00;;;;;;5033262;28;20407;-68
2023/02/13 12:09:24;;;;;;;1.00;0.93;;;14.60;45.90;;;;;;5034007;28;20234;-68
2023/02/13 12:11:56;;;;;;;1.60;0.83;;;14.30;46.00;;;;;;5033505;28;20456;-68
2023/02/13 12:14:27;;;;;;;1.23;1.13;;;14.30;46.60;;;;;;5033776;28;20167;-68
2023/02/13 12:17:02;;;;;;;0.80;0.80;;;14.20;45.80;;;;;;5033408;28;20456;-68
2023/02/13 12:19:45;;;;;;;0.60;0.60;;;14.10;45.80;;;;;;5033467;28;20416;-68
2023/02/13 12:22:11;;;;;;;1.90;1.10;;;14.00;46.10;;;;;;5033465;28;20920;-68
2023/02/13 12:25:03;;;;;;;2.30;0.70;;;14.00;46.30;;;;;;5033442;28;20416;-68
2023/02/13 12:27:52;;;;;;;1.43;1.33;;;14.00;44.40;;;;;;5036387;28;20580;-68
2023/02/13 12:30:51;;;;;;;2.20;1.10;;;14.00;44.90;;;;;;5036635;28;20451;-68
2023/02/13 12:33:53;;;;;;;1.37;1.27;;;14.00;44.60;;;;;;5037809;28;20439;-68
2023/02/13 12:36:31;;;;;;;1.77;1.30;;;14.00;45.10;;;;;;5035804;28;20418;-68
2023/02/13 12:39:05;;;;;;;5.20;1.83;;;14.10;45.00;;;;;;5037261;28;20401;-68
2023/02/13 12:41:37;;;;;;;1.03;0.73;;;13.90;45.10;;;;;;5037310;28;20456;-68
2023/02/13 12:44:02;;;;;;;1.27;1.17;;;13.80;44.10;;;;;;5037468;28;20432;-68
2023/02/13 12:46:51;;;;;;;1.20;1.20;;;13.80;44.50;;;;;;5037049;28;20418;-68
2023/02/13 12:49:38;;;;;;;0.53;0.53;;;13.80;44.10;;;;;;5037337;28;20167;-68
2023/02/13 12:52:36;;;;;;;4.20;1.13;;;13.70;44.60;;;;;;5037098;28;20425;-68
2023/02/13 12:55:31;;;;;;;1.90;1.23;;;13.50;44.10;;;;;;5013480;28;20437;-68
2023/02/13 12:58:05;;;;;;;2.30;0.90;;;13.40;44.40;;;;;;5026454;28;20394;-67
2023/02/13 13:01:02;;;;;;;0.50;0.50;;;13.20;43.80;;;;;;5037089;28;20405;-68
2023/02/13 13:03:32;;;;;;;0.47;0.47;;;13.20;43.20;;;;;;5035365;28;20460;-70
2023/02/13 13:06:21;;;;;;;1.57;1.30;;;13.10;42.80;;;;;;5037093;28;20416;-69
2023/02/13 13:09:02;;;;;;;0.90;0.90;;;12.80;42.50;;;;;;5036874;28;20760;-70
2023/02/13 13:11:42;;;;;;;0.87;0.87;;;12.60;41.90;;;;;;5036701;28;20464;-70
2023/02/13 13:14:14;;;;;;;1.87;1.70;;;12.50;43.90;;;;;;5036946;28;20413;-67
2023/02/13 13:17:01;;;;;;;1.23;1.13;;;12.20;44.40;;;;;;5036595;28;20733;-67
2023/02/13 13:20:05;;;;;;;0.97;0.87;;;12.00;43.10;;;;;;5036727;28;20403;-67
2023/02/13 13:22:37;;;;;;;0.80;0.80;;;11.80;44.00;;;;;;5034973;28;20461;-67
2023/02/13 13:25:22;;;;;;;0.63;0.47;;;11.70;44.30;;;;;;5035127;28;20397;-67
2023/02/13 13:27:52;;;;;;;0.50;0.50;;;11.60;44.00;;;;;;5036460;28;20402;-67
2023/02/13 13:30:28;;;;;;;2.23;0.83;;;11.40;45.50;;;;;;5036501;28;20528;-67
2023/02/13 13:33:03;;;;;;;2.73;0.70;;;11.20;45.80;;;;;;5034694;28;20468;-67
2023/02/13 13:35:30;;;;;;;1.40;1.30;;;11.00;46.20;;;;;;5034880;28;20402;-67
2023/02/13 13:38:11;;;;;;;1.52;1.42;;;10.80;46.20;;;;;;5033499;28;20413;-67
2023/02/13 13:41:06;;;;;;;2.88;0.93;;;10.80;45.10;;;;;;5035281;28;20175;-67
2023/02/13 13:43:53;;;;;;;2.05;0.65;;;10.70;46.10;;;;;;5033869;28;20191;-67
2023/02/13 13:46:49;;;;;;;1.02;0.70;;;10.60;45.30;;;;;;5034124;28;20252;-67
2023/02/13 13:49:51;;;;;;;0.75;0.75;;;10.70;44.70;;;;;;5035767;28;20546;-67
2023/02/13 13:52:28;;;;;;;0.40;0.40;;;10.60;47.00;;;;;;5035893;28;20674;-67
2023/02/13 13:54:55;;;;;;;0.68;0.68;;;10.50;47.20;;;;;;5035874;28;20236;-67
2023/02/13 13:57:24;;;;;;;0.80;0.77;;;10.50;46.40;;;;;;5034078;28;20662;-70